Weather Underground® Station Historical Data


Station Historical Data For Bruceton, TN. (K3JAE's Weather Station - KTNBRUCE2)
 
Daily Summary for:  April 27, 2017 Units:  English    Metric   Both
« Previous Day
Next Day »
Daily Weekly Monthly Yearly Custom
  Current: High: Low: Average:
Temperature: 64.7 °F 65.1 °F 50.2 °F 56.3 °F
Dew Point: 52.2 °F 55.6 °F 47.1 °F 51.4 °F
Humidity: 64% 91% 62% 84%
Wind Speed: 8.1mph 13.8mph 0.0mph 5.3mph
Wind Gust: 8.1mph 13.8mph - -
WindWNW - - WSW
Pressure: 29.84 in 29.85 in 29.56 in -
Precipitation: 0.17 in      
Historical Graphs
 
 
Tabular Data for:  April 27, 2017
Time Temperature Dew Point Pressure Wind Wind Speed Wind Gust Humidity Rainfall Rate (Hourly) solar Conditions
00:03 59.8 °F 55.6 °F 29.62 in SE 2.3 mph 2.3 mph 86% 0.30 in 0.0 W/m2 RA
00:08 59.7 °F 55.5 °F 29.62 in SE 1.0 mph 1.0 mph 86% 0.31 in 0.0 W/m2 RA
00:13 59.7 °F 55.5 °F 29.61 in SE 2.3 mph 2.3 mph 86% 0.30 in 0.0 W/m2 RA
00:18 59.6 °F 55.4 °F 29.59 in SE 3.5 mph 3.5 mph 86% 0.30 in 0.0 W/m2 RA
00:23 59.6 °F 55.4 °F 29.60 in SE 2.3 mph 2.3 mph 86% 0.30 in 0.0 W/m2 RA
00:28 59.5 °F 55.3 °F 29.58 in East 6.9 mph 6.9 mph 86% 0.30 in 0.0 W/m2 RA
00:33 59.5 °F 55.3 °F 29.56 in ESE 3.5 mph 3.5 mph 86% 0.28 in 0.0 W/m2 RA
00:38 59.5 °F 55.3 °F 29.56 in ESE 3.5 mph 3.5 mph 86% 0.27 in 0.0 W/m2 RA
00:43 59.4 °F 55.2 °F 29.58 in SSW 2.3 mph 2.3 mph 86% 0.25 in 0.0 W/m2 RA
00:48 59.4 °F 55.2 °F 29.58 in SSW 1.2 mph 1.2 mph 86% 0.22 in 0.0 W/m2 FEW
00:53 59.4 °F 55.2 °F 29.58 in SSW 1.2 mph   86% 0.19 in 0.0 W/m2 FEW
00:58 59.4 °F 55.2 °F 29.57 in SSW 1.2 mph 1.2 mph 86% 0.16 in 0.0 W/m2 FEW
01:03 59.4 °F 55.2 °F 29.57 in SSW 3.5 mph 3.5 mph 86% 0.11 in 0.0 W/m2 FEW
01:08 59.4 °F 54.9 °F 29.57 in East 3.5 mph 3.5 mph 85% 0.09 in 0.0 W/m2 FEW
01:13 59.3 °F 55.1 °F 29.57 in SSE 2.0 mph 2.0 mph 86% 0.08 in 0.0 W/m2 FEW
01:18 59.3 °F 55.1 °F 29.57 in SSE 1.0 mph 1.0 mph 86% 0.06 in 0.0 W/m2 FEW
01:23 59.2 °F 55.0 °F 29.57 in SSE 1.2 mph 1.2 mph 86% 0.05 in 0.0 W/m2 FEW
01:28 59.2 °F 55.0 °F 29.57 in Calm   0.5 mph 86% 0.03 in 0.0 W/m2 FEW
01:33 59.2 °F 55.0 °F 29.58 in Calm     86% 0.02 in 0.0 W/m2 FEW
01:38 59.2 °F 55.0 °F 29.58 in SSE 3.0 mph 3.0 mph 86% 0.01 in 0.0 W/m2 FEW
01:44 59.2 °F 54.7 °F 29.57 in South 4.6 mph 4.6 mph 85% 0.00 in 0.0 W/m2 FEW
01:49 59.2 °F 54.7 °F 29.58 in WSW 4.0 mph 4.0 mph 85% 0.00 in 0.0 W/m2 FEW
01:54 59.3 °F 54.8 °F 29.58 in SSW 2.3 mph 2.3 mph 85% 0.03 in 0.0 W/m2 RA
01:59 59.4 °F 54.9 °F 29.58 in SSW 2.0 mph 2.0 mph 85% 0.03 in 0.0 W/m2 FEW
02:04 59.5 °F 55.0 °F 29.59 in SW 3.5 mph 3.5 mph 85% 0.03 in 0.0 W/m2 SCT
02:09 59.6 °F 55.1 °F 29.58 in SSW 3.5 mph 3.5 mph 85% 0.03 in 0.0 W/m2 SCT
02:14 59.6 °F 55.1 °F 29.58 in WSW 3.5 mph 3.5 mph 85% 0.03 in 0.0 W/m2 SCT
02:19 59.7 °F 55.2 °F 29.57 in South 3.5 mph 3.5 mph 85% 0.03 in 0.0 W/m2 SCT
02:24 59.7 °F 55.2 °F 29.57 in South 3.5 mph 3.5 mph 85% 0.03 in 0.0 W/m2 SCT
02:29 59.6 °F 55.1 °F 29.57 in South 3.5 mph 3.5 mph 85% 0.03 in 0.0 W/m2 SCT
02:34 59.5 °F 55.0 °F 29.57 in South 1.2 mph   85% 0.03 in 0.0 W/m2 SCT
02:35 59.5 °F 55.0 °F 29.57 in South 1.2 mph 1.2 mph 85% 0.03 in 0.0 W/m2 SCT
02:40 59.5 °F 55.0 °F 29.57 in South 1.2 mph 1.2 mph 85% 0.03 in 0.0 W/m2 SCT
02:45 59.4 °F 54.9 °F 29.58 in South 1.2 mph 1.2 mph 85% 0.03 in 0.0 W/m2 SCT
02:50 59.4 °F 54.9 °F 29.58 in South 2.3 mph 2.3 mph 85% 0.03 in 0.0 W/m2 SCT
02:55 59.4 °F 54.9 °F 29.58 in South 2.3 mph 2.3 mph 85% 0.00 in 0.0 W/m2 SCT
03:00 59.4 °F 54.9 °F 29.58 in South 5.8 mph 5.8 mph 85% 0.00 in 0.0 W/m2 SCT
03:05 59.3 °F 54.8 °F 29.58 in South 2.3 mph 2.3 mph 85% 0.00 in 0.0 W/m2 -RA
03:10 59.4 °F 54.9 °F 29.58 in SSW 2.0 mph 2.0 mph 85% 0.00 in 0.0 W/m2 -RA
03:15 59.4 °F 54.9 °F 29.58 in SSW 3.5 mph 3.5 mph 85% 0.00 in 0.0 W/m2 -RA
03:20 59.4 °F 54.9 °F 29.58 in South 2.3 mph 2.3 mph 85% 0.00 in 0.0 W/m2 OVC
03:25 59.4 °F 54.9 °F 29.58 in South 3.5 mph 3.5 mph 85% 0.00 in 0.0 W/m2 OVC
03:30 59.5 °F 55.0 °F 29.58 in WSW 4.6 mph 4.6 mph 85% 0.00 in 0.0 W/m2 OVC
03:35 59.4 °F 54.9 °F 29.59 in SSW 1.2 mph   85% 0.00 in 0.0 W/m2 OVC
03:40 59.5 °F 55.0 °F 29.59 in SSW 2.3 mph 2.3 mph 85% 0.00 in 0.0 W/m2 OVC
03:45 59.5 °F 55.0 °F 29.59 in SSW 5.0 mph 5.0 mph 85% 0.00 in 0.0 W/m2 OVC
03:50 59.5 °F 55.0 °F 29.59 in SW 3.5 mph 3.5 mph 85% 0.00 in 0.0 W/m2 OVC
03:55 59.5 °F 55.0 °F 29.58 in SW 3.5 mph 3.5 mph 85% 0.00 in 0.0 W/m2 OVC
04:00 59.4 °F 54.9 °F 29.58 in SW 4.6 mph 4.6 mph 85% 0.00 in 0.0 W/m2 OVC
04:05 59.5 °F 55.0 °F 29.59 in SW 3.5 mph 3.5 mph 85% 0.00 in 0.0 W/m2 OVC
04:10 59.5 °F 55.0 °F 29.59 in WSW 9.2 mph 9.2 mph 85% 0.00 in 0.0 W/m2 OVC
04:15 59.5 °F 55.0 °F 29.59 in SW 3.5 mph 3.5 mph 85% 0.00 in 0.0 W/m2 OVC
04:20 59.6 °F 55.1 °F 29.60 in WSW 4.6 mph 4.6 mph 85% 0.00 in 0.0 W/m2 OVC
04:25 59.6 °F 55.1 °F 29.61 in WNW 8.1 mph 8.1 mph 85% 0.00 in 0.0 W/m2 OVC
04:30 59.1 °F 54.9 °F 29.61 in WNW 8.1 mph 8.1 mph 86% 0.00 in 0.0 W/m2 OVC
04:35 58.6 °F 54.7 °F 29.61 in West 6.0 mph 6.0 mph 87% 0.00 in 0.0 W/m2 OVC
04:41 58.4 °F 54.9 °F 29.62 in West 8.1 mph 8.1 mph 88% 0.00 in 0.0 W/m2 OVC
04:45 58.2 °F 54.7 °F 29.62 in West 6.9 mph 6.9 mph 88% 0.00 in 0.0 W/m2 OVC
04:50 58.0 °F 54.5 °F 29.63 in West 6.0 mph 6.0 mph 88% 0.00 in 0.0 W/m2 OVC
04:55 57.6 °F 54.1 °F 29.63 in West 7.0 mph 7.0 mph 88% 0.00 in 0.0 W/m2 OVC
05:00 57.2 °F 53.7 °F 29.64 in West 8.1 mph 8.1 mph 88% 0.00 in 0.0 W/m2 OVC
05:05 56.8 °F 53.6 °F 29.64 in WNW 8.1 mph 8.1 mph 89% 0.00 in 0.0 W/m2 OVC
05:10 56.1 °F 53.2 °F 29.64 in NW 8.1 mph 8.1 mph 90% 0.00 in 0.0 W/m2 OVC
05:15 55.6 °F 52.7 °F 29.65 in NW 8.1 mph 8.1 mph 90% 0.00 in 0.0 W/m2 OVC
05:20 55.1 °F 52.2 °F 29.65 in NW 8.1 mph 8.1 mph 90% 0.00 in 0.0 W/m2 OVC
05:25 54.7 °F 51.8 °F 29.66 in West 5.8 mph 5.8 mph 90% 0.00 in 0.0 W/m2 OVC
05:30 54.5 °F 51.6 °F 29.66 in West 8.0 mph 8.0 mph 90% 0.00 in 0.0 W/m2 OVC
05:35 54.3 °F 51.4 °F 29.66 in West 5.8 mph 5.8 mph 90% 0.00 in 0.0 W/m2 OVC
05:40 54.1 °F 50.9 °F 29.67 in WNW 8.1 mph 8.1 mph 89% 0.00 in 0.0 W/m2 OVC
05:45 54.0 °F 50.8 °F 29.67 in West 6.9 mph 6.9 mph 89% 0.00 in 0.0 W/m2 OVC
05:50 53.9 °F 50.7 °F 29.67 in WNW 3.5 mph 3.5 mph 89% 0.00 in 0.0 W/m2 OVC
05:51 53.9 °F 50.7 °F 29.67 in WNW 4.6 mph 4.6 mph 89% 0.00 in 0.0 W/m2 OVC
05:56 53.8 °F 50.6 °F 29.68 in WNW 8.1 mph 8.1 mph 89% 0.00 in 0.0 W/m2 OVC
06:01 53.7 °F 50.5 °F 29.68 in WNW 3.5 mph 3.5 mph 89% 0.00 in 0.0 W/m2 OVC
06:06 53.5 °F 50.3 °F 29.68 in WNW 5.8 mph 5.8 mph 89% 0.00 in 0.0 W/m2 OVC
06:11 53.0 °F 49.8 °F 29.69 in West 6.9 mph 6.9 mph 89% 0.00 in 0.0 W/m2 OVC
06:16 52.8 °F 49.6 °F 29.69 in West 3.5 mph 3.5 mph 89% 0.00 in 0.0 W/m2 OVC
06:21 52.7 °F 49.5 °F 29.69 in West 3.5 mph 3.5 mph 89% 0.00 in 0.0 W/m2 OVC
06:26 52.4 °F 49.3 °F 29.69 in West 3.5 mph 3.5 mph 89% 0.00 in 5.0 W/m2 OVC
06:31 52.2 °F 49.1 °F 29.70 in West 6.9 mph 6.9 mph 89% 0.00 in 5.0 W/m2 OVC
06:36 52.1 °F 49.0 °F 29.70 in West 6.9 mph 6.9 mph 89% 0.00 in 9.0 W/m2 OVC
06:41 51.9 °F 48.8 °F 29.70 in WNW 11.5 mph 11.5 mph 89% 0.00 in 7.0 W/m2 OVC
06:46 51.4 °F 48.6 °F 29.71 in WSW 6.9 mph 6.9 mph 90% 0.00 in 28.0 W/m2 OVC
06:51 51.3 °F 48.5 °F 29.71 in WNW 6.9 mph 6.9 mph 90% 0.00 in 40.0 W/m2 OVC
06:56 51.2 °F 48.4 °F 29.72 in WSW 13.8 mph 13.8 mph 90% 0.00 in 35.0 W/m2 OVC
07:01 51.0 °F 48.5 °F 29.72 in WNW 6.9 mph 6.9 mph 91% 0.00 in 44.0 W/m2 BKN
07:06 50.9 °F 48.4 °F 29.72 in West 4.6 mph 4.6 mph 91% 0.00 in 51.0 W/m2 BKN
07:11 50.8 °F 48.3 °F 29.72 in West 5.8 mph 5.8 mph 91% 0.00 in 54.0 W/m2 SCT
07:16 50.9 °F 48.4 °F 29.72 in West 3.5 mph 3.5 mph 91% 0.00 in 46.0 W/m2 SCT
07:21 51.0 °F 48.5 °F 29.73 in WNW 6.0 mph 6.0 mph 91% 0.00 in 42.0 W/m2 SCT
07:26 50.9 °F 48.4 °F 29.73 in WSW 8.1 mph 8.1 mph 91% 0.00 in 44.0 W/m2 SCT
07:31 50.8 °F 48.3 °F 29.74 in WNW 4.0 mph 4.0 mph 91% 0.00 in 35.0 W/m2 SCT
07:36 50.7 °F 48.2 °F 29.74 in WSW 3.5 mph 3.5 mph 91% 0.00 in 42.0 W/m2 SCT
07:41 50.6 °F 48.1 °F 29.74 in West 9.2 mph 9.2 mph 91% 0.00 in 42.0 W/m2 BKN
07:46 50.5 °F 48.0 °F 29.74 in WSW 8.1 mph 8.1 mph 91% 0.00 in 44.0 W/m2 BKN
07:51 50.5 °F 48.0 °F 29.75 in West 6.9 mph 6.9 mph 91% 0.00 in 47.0 W/m2 BKN
07:56 50.5 °F 48.0 °F 29.75 in NNW 6.9 mph 6.9 mph 91% 0.00 in 42.0 W/m2 BKN
08:01 50.4 °F 47.9 °F 29.76 in WSW 3.5 mph 3.5 mph 91% 0.00 in 60.0 W/m2 OVC
08:06 50.4 °F 47.9 °F 29.76 in West 6.9 mph 6.9 mph 91% 0.00 in 79.0 W/m2 OVC
08:11 50.2 °F 47.7 °F 29.76 in West 9.2 mph 9.2 mph 91% 0.00 in 111.0 W/m2 OVC
08:16 50.3 °F 47.5 °F 29.77 in West 11.5 mph 11.5 mph 90% 0.00 in 123.0 W/m2 OVC
08:21 50.5 °F 47.7 °F 29.77 in West 3.5 mph 3.5 mph 90% 0.00 in 127.0 W/m2 OVC
08:26 50.7 °F 48.2 °F 29.77 in West 3.5 mph 3.5 mph 91% 0.00 in 98.0 W/m2 OVC
08:31 50.8 °F 48.0 °F 29.78 in WSW 7.0 mph 7.0 mph 90% 0.00 in 139.0 W/m2 OVC
08:36 50.6 °F 47.5 °F 29.78 in WSW 11.5 mph 11.5 mph 89% 0.00 in 134.0 W/m2 OVC
08:41 50.6 °F 47.5 °F 29.78 in WSW 10.4 mph 10.4 mph 89% 0.00 in 139.0 W/m2 OVC
08:46 50.6 °F 47.5 °F 29.78 in West 8.1 mph 8.1 mph 89% 0.00 in 149.0 W/m2 OVC
08:51 50.5 °F 47.4 °F 29.78 in West 6.9 mph 6.9 mph 89% 0.00 in 139.0 W/m2 OVC
08:56 50.4 °F 47.3 °F 29.78 in West 9.2 mph 9.2 mph 89% 0.00 in 141.0 W/m2 OVC
09:01 50.5 °F 47.4 °F 29.78 in WNW 6.9 mph 6.9 mph 89% 0.00 in 128.0 W/m2 OVC
09:06 50.5 °F 47.7 °F 29.78 in WSW 5.8 mph 5.8 mph 90% 0.00 in 125.0 W/m2 OVC
09:11 50.5 °F 47.4 °F 29.79 in West 9.2 mph 9.2 mph 89% 0.00 in 135.0 W/m2 OVC
09:16 50.5 °F 47.1 °F 29.79 in West 10.4 mph 10.4 mph 88% 0.00 in 172.0 W/m2 OVC
09:21 50.6 °F 47.5 °F 29.79 in West 3.5 mph 3.5 mph 89% 0.00 in 151.0 W/m2 OVC
09:26 50.8 °F 47.7 °F 29.79 in WNW 5.8 mph 5.8 mph 89% 0.00 in 151.0 W/m2 OVC
09:31 51.0 °F 47.9 °F 29.79 in West 6.9 mph 6.9 mph 89% 0.00 in 146.0 W/m2 OVC
09:36 51.2 °F 48.1 °F 29.79 in WNW 3.5 mph 3.5 mph 89% 0.00 in 144.0 W/m2 OVC
09:37 51.2 °F 48.1 °F 29.79 in WSW 5.8 mph 5.8 mph 89% 0.00 in 139.0 W/m2 OVC
09:42 51.2 °F 48.1 °F 29.79 in NW 3.5 mph 3.5 mph 89% 0.00 in 134.0 W/m2 OVC
09:47 51.1 °F 48.0 °F 29.79 in WSW 3.5 mph 3.5 mph 89% 0.00 in 135.0 W/m2 OVC
09:52 51.2 °F 48.1 °F 29.79 in WSW 3.5 mph 3.5 mph 89% 0.00 in 135.0 W/m2 OVC
09:57 51.3 °F 48.2 °F 29.79 in WSW 3.5 mph 3.5 mph 89% 0.00 in 134.0 W/m2 OVC
10:02 51.4 °F 48.3 °F 29.79 in West 3.5 mph 3.5 mph 89% 0.00 in 139.0 W/m2 OVC
10:07 51.5 °F 48.4 °F 29.79 in West 4.0 mph 4.0 mph 89% 0.00 in 128.0 W/m2 OVC
10:12 51.6 °F 48.5 °F 29.79 in WSW 5.0 mph 5.0 mph 89% 0.00 in 148.0 W/m2 OVC
10:17 51.8 °F 48.7 °F 29.80 in West 4.0 mph 4.4 mph 89% 0.00 in 192.0 W/m2 OVC
10:22 51.8 °F 48.1 °F 29.80 in West 6.9 mph 6.9 mph 87% 0.00 in 237.0 W/m2 OVC
10:27 52.1 °F 48.7 °F 29.80 in West 7.0 mph 7.0 mph 88% 0.00 in 223.0 W/m2 OVC
10:32 52.3 °F 48.2 °F 29.81 in WNW 6.9 mph 6.9 mph 86% 0.00 in 206.0 W/m2 OVC
10:37 52.5 °F 48.4 °F 29.81 in West 3.5 mph 3.5 mph 86% 0.00 in 308.0 W/m2 OVC
10:42 52.8 °F 48.1 °F 29.81 in WSW 11.5 mph 11.5 mph 84% 0.00 in 318.0 W/m2 OVC
10:47 52.9 °F 48.2 °F 29.81 in NW 6.9 mph 6.9 mph 84% 0.00 in 95.0 W/m2 OVC
10:52 52.7 °F 48.0 °F 29.82 in WNW 3.5 mph 3.5 mph 84% 0.00 in 243.0 W/m2 OVC
10:57 52.9 °F 48.5 °F 29.82 in NW 4.6 mph 4.6 mph 85% 0.00 in 339.0 W/m2 OVC
11:02 53.3 °F 48.6 °F 29.82 in NW 4.6 mph 4.6 mph 84% 0.00 in 306.0 W/m2 OVC
11:07 53.8 °F 49.1 °F 29.82 in NW 8.0 mph 8.0 mph 84% 0.00 in 308.0 W/m2 OVC
11:12 53.8 °F 48.8 °F 29.82 in West 6.9 mph 6.9 mph 83% 0.00 in 315.0 W/m2 OVC
11:17 54.0 °F 49.0 °F 29.82 in WNW 8.1 mph 8.1 mph 83% 0.00 in 302.0 W/m2 OVC
11:22 54.3 °F 48.9 °F 29.82 in West 4.0 mph 4.0 mph 82% 0.00 in 258.0 W/m2 OVC
11:27 54.5 °F 49.1 °F 29.83 in WNW 3.5 mph 3.5 mph 82% 0.00 in 250.0 W/m2 OVC
11:32 54.5 °F 49.1 °F 29.83 in WSW 7.0 mph 7.0 mph 82% 0.00 in 260.0 W/m2 OVC
11:37 54.3 °F 48.9 °F 29.83 in SSW 6.9 mph 6.9 mph 82% 0.00 in 281.0 W/m2 OVC
11:42 54.3 °F 49.2 °F 29.83 in SW 6.9 mph 6.9 mph 83% 0.00 in 260.0 W/m2 OVC
11:47 54.4 °F 49.3 °F 29.83 in WSW 3.5 mph 3.5 mph 83% 0.00 in 253.0 W/m2 OVC
11:52 54.5 °F 49.1 °F 29.83 in WSW 8.1 mph 8.1 mph 82% 0.00 in 327.0 W/m2 OVC
11:57 54.5 °F 49.1 °F 29.83 in West 9.2 mph 9.2 mph 82% 0.00 in 418.0 W/m2 OVC
12:02 54.8 °F 49.4 °F 29.83 in West 7.0 mph 7.0 mph 82% 0.00 in 401.0 W/m2 OVC
12:07 54.9 °F 49.5 °F 29.83 in West 3.5 mph 3.5 mph 82% 0.00 in 396.0 W/m2 OVC
12:12 55.4 °F 49.7 °F 29.83 in WSW 4.6 mph 4.6 mph 81% 0.00 in 429.0 W/m2 OVC
12:17 55.9 °F 50.2 °F 29.83 in WSW 4.6 mph 4.6 mph 81% 0.00 in 621.0 W/m2 OVC
12:22 56.0 °F 49.9 °F 29.83 in West 3.5 mph 3.5 mph 80% 0.00 in 563.0 W/m2 OVC
12:27 56.1 °F 50.0 °F 29.83 in West 8.1 mph 8.1 mph 80% 0.00 in 619.0 W/m2 OVC
12:32 56.7 °F 50.9 °F 29.84 in WNW 6.9 mph 6.9 mph 81% 0.00 in 550.0 W/m2 OVC
12:37 57.1 °F 50.6 °F 29.84 in WSW 10.0 mph 10.0 mph 79% 0.00 in 520.0 W/m2 OVC
12:42 57.2 °F 50.4 °F 29.83 in WSW 8.1 mph 8.1 mph 78% 0.00 in 485.0 W/m2 OVC
12:47 57.1 °F 50.3 °F 29.83 in SSW 9.2 mph 9.2 mph 78% 0.00 in 550.0 W/m2 OVC
12:52 57.1 °F 50.3 °F 29.83 in NW 5.8 mph 5.8 mph 78% 0.00 in 496.0 W/m2 OVC
12:57 57.4 °F 50.9 °F 29.83 in WSW 5.0 mph 5.0 mph 79% 0.00 in 432.0 W/m2 OVC
13:02 57.7 °F 50.9 °F 29.83 in NW 3.5 mph 3.5 mph 78% 0.00 in 448.0 W/m2 OVC
13:07 58.2 °F 50.7 °F 29.83 in NW 3.5 mph 3.5 mph 76% 0.00 in 378.0 W/m2 OVC
13:12 58.7 °F 51.2 °F 29.83 in NW 3.5 mph 3.5 mph 76% 0.00 in 420.0 W/m2 OVC
13:17 59.4 °F 51.8 °F 29.83 in WNW 3.5 mph 3.5 mph 76% 0.00 in 420.0 W/m2 OVC
13:22 60.1 °F 52.5 °F 29.83 in WNW 6.9 mph 6.9 mph 76% 0.00 in 360.0 W/m2 BKN
13:27 60.0 °F 51.7 °F 29.84 in West 8.1 mph 8.1 mph 74% 0.00 in 635.0 W/m2 BKN
13:32 59.6 °F 51.7 °F 29.84 in WSW 3.5 mph 3.5 mph 75% 0.00 in 369.0 W/m2 BKN
13:37 59.3 °F 51.4 °F 29.84 in West 6.0 mph 6.0 mph 75% 0.00 in 366.0 W/m2 BKN
13:42 59.4 °F 52.2 °F 29.84 in SW 8.1 mph 8.1 mph 77% 0.00 in 452.0 W/m2 FEW
13:47 59.8 °F 51.9 °F 29.84 in NW 5.8 mph 5.8 mph 75% 0.00 in 1234.0 W/m2 BKN
13:52 60.7 °F 52.4 °F 29.84 in SW 4.6 mph 4.6 mph 74% 0.00 in 1104.0 W/m2 SCT
13:57 60.6 °F 52.3 °F 29.84 in West 5.8 mph 5.9 mph 74% 0.00 in 1104.0 W/m2 SCT
14:02 60.6 °F 51.1 °F 29.84 in West 3.5 mph 3.5 mph 71% 0.00 in 1179.0 W/m2 BKN
14:07 61.0 °F 51.5 °F 29.84 in NW 9.2 mph 9.2 mph 71% 0.00 in 1230.0 W/m2 BKN
14:12 61.7 °F 51.4 °F 29.84 in WSW 7.0 mph 7.0 mph 69% 0.00 in 431.0 W/m2 BKN
14:17 61.4 °F 51.5 °F 29.84 in WSW 5.8 mph 6.6 mph 70% 0.00 in 371.0 W/m2 SCT
14:22 60.8 °F 51.0 °F 29.85 in SW 3.5 mph 3.5 mph 70% 0.00 in 281.0 W/m2 SCT
14:27 61.1 °F 52.4 °F 29.85 in SSW 4.6 mph 4.6 mph 73% 0.00 in 1025.0 W/m2 SCT
14:32 61.3 °F 51.4 °F 29.85 in WSW 3.5 mph 3.5 mph 70% 0.00 in 1021.0 W/m2 SCT
14:37 62.3 °F 52.8 °F 29.85 in WSW 8.1 mph 8.1 mph 71% 0.00 in 990.0 W/m2 SCT
14:42 62.3 °F 52.4 °F 29.84 in SW 3.5 mph 3.5 mph 70% 0.00 in 1074.0 W/m2 SCT
14:47 62.8 °F 52.9 °F 29.84 in West 6.9 mph 6.9 mph 70% 0.00 in 912.0 W/m2 SCT
14:52 63.6 °F 52.8 °F 29.84 in West 3.5 mph 3.5 mph 68% 0.00 in 912.0 W/m2 SCT
14:57 64.1 °F 52.1 °F 29.84 in West 8.1 mph 8.1 mph 65% 0.00 in 930.0 W/m2 SCT
15:02 64.4 °F 52.4 °F 29.84 in West 4.0 mph 4.0 mph 65% 0.00 in 896.0 W/m2 SCT
15:07 65.0 °F 52.9 °F 29.84 in NW 3.5 mph 3.5 mph 65% 0.00 in 921.0 W/m2 SCT
15:12 65.1 °F 51.8 °F 29.84 in WSW 5.8 mph 5.8 mph 62% 0.00 in 856.0 W/m2 SCT
15:17 64.3 °F 52.3 °F 29.84 in West 10.4 mph 10.4 mph 65% 0.00 in 833.0 W/m2 SCT
15:22 64.6 °F 52.6 °F 29.84 in NNW 5.8 mph 5.8 mph 65% 0.00 in 824.0 W/m2 SCT
15:27 64.7 °F 52.2 °F 29.84 in WNW 8.1 mph 8.1 mph 64% 0.00 in 807.0 W/m2 SCT
Bruceton, TN. NWS Weather Forecast
Compliments of:  Weather Underground - 4.5 mb

Interesting Weather Facts
HOTTEST TEMPERATURE EVER RECORDED
The world's highest official temperature is 136°F (58°C) recorded at El Azizia, Libya, on 13 September 1922.